Airfield :







YOU CAN JOIN US ON...

 
LOGIN :

Register | Disclaimer

   EN    FR    IT 

 









Legend :    VFR   Marginal VFR   IFR   Intensive IFR   Very Intensive IFR
Visi :
Ceiling :
>= 8 km
>= 3000ft
5 to 8 km
1000 to 3000 ft
1500m to 5 km
500 to 1000 ft
800 to 1500m
200 to 500 ft
< 800m
< 200 ft
Symbols :   Thunderstorms  Fog  Heavy snow  Heavy precipitations  Wind > 20 kt







- Airport Elevation : 48 ft
- IATA code : REK


BIRK - Reykjavik

CURRENT METAR :
  • 202000Z 10007KT 060V150 9999 FEW023 18/06 Q1003

EXPIRED METARs :
  • 201900Z 09007KT 9999 FEW040TCU 18/07 Q1003
  • 201800Z 12010KT 090V150 9999 FEW036CB SCT053 20/07 Q1002
  • 201700Z 36006KT 330V050 9999 VCSH FEW036CB SCT048 18/06 Q1002

TAF TAF BIRK
Valid from the 20 at 18:00 until the 21 at 18:00 UTC


201607Z 2018/2118 36008KT 9999 SCT040 TX18/2018Z TN10/2103Z
TEMPO 2018/2023 SHRA BKN030CB
BECMG 2021/2100 10008KT BKN015 OVC025
PROB40
TEMPO 2105/2109 SHRA BKN010
BECMG 2110/2113 35008KT SCT020 BKN035
TEMPO 2114/2118 SHRA BKN020CB
No reported NOTAMs for that airfield.



MET'MAP, your aeronautical weather chart ! - Copyright ORBIFLY December 2007 - Disclaimer

ORBIFLY MET'MAP TEAM :

Programming & Development : Alexandra Zaïnal
Concept & Development : Baudouin d'Aumeries
Co-Development & Prog : Marc-Olivier Méhu
Technical & hardware support : Manuel Goepfert

Contact : metmap@orbifly.com




SOURCES & CREDITS :

   NOAA